createdAt,value
2019-01-18T00:01:11.498Z,7.47
2019-01-18T00:06:17.792Z,6.70
2019-01-18T00:11:23.863Z,6.15
2019-01-18T00:16:29.826Z,6.90
2019-01-18T00:21:35.886Z,6.67
2019-01-18T00:26:41.871Z,5.53
2019-01-18T00:31:48.081Z,5.77
2019-01-18T00:36:54.359Z,7.13
2019-01-18T00:42:00.508Z,6.80
2019-01-18T00:47:06.649Z,7.42
2019-01-18T00:52:13.193Z,7.47
2019-01-18T00:57:19.247Z,8.18
2019-01-18T01:02:25.113Z,9.27
2019-01-18T01:07:31.101Z,7.80
2019-01-18T01:12:37.184Z,6.77
2019-01-18T01:17:43.320Z,6.30
2019-01-18T01:22:50.276Z,7.23
2019-01-18T01:27:56.524Z,6.80
2019-01-18T01:33:02.677Z,6.00
2019-01-18T01:38:08.560Z,4.10
2019-01-18T01:43:14.434Z,2.80
2019-01-18T01:48:20.538Z,2.10
2019-01-18T01:53:26.595Z,1.30
2019-01-18T01:58:32.953Z,1.53
2019-01-18T02:03:38.846Z,12.37
2019-01-18T02:08:45.898Z,1.17
2019-01-18T02:13:51.920Z,0.50
2019-01-18T02:18:57.782Z,1.20
2019-01-18T02:24:03.761Z,0.70
2019-01-18T02:29:09.715Z,1.00
2019-01-18T02:34:16.871Z,0.65
2019-01-18T02:39:23.255Z,1.30
2019-01-18T02:44:29.289Z,0.90
2019-01-18T02:49:35.488Z,0.60
2019-01-18T02:54:41.654Z,1.40
2019-01-18T02:59:47.621Z,1.20
2019-01-18T03:04:53.483Z,0.93
2019-01-18T03:09:59.461Z,1.13
2019-01-18T03:15:07.043Z,1.47
2019-01-18T03:20:14.922Z,1.60
2019-01-18T03:25:24.878Z,1.40
2019-01-18T03:30:31.038Z,1.67
2019-01-18T03:35:37.042Z,1.50
2019-01-18T03:40:42.980Z,1.30
2019-01-18T03:45:49.256Z,0.80
2019-01-18T03:50:55.138Z,0.70
2019-01-18T03:56:01.344Z,0.80
2019-01-18T04:01:07.393Z,0.97
2019-01-18T04:06:13.258Z,0.70
2019-01-18T04:11:19.141Z,0.95
2019-01-18T04:16:25.825Z,0.83
2019-01-18T04:21:31.556Z,1.33
2019-01-18T04:26:37.717Z,1.73
2019-01-18T04:31:43.981Z,1.43
2019-01-18T04:36:50.078Z,1.53
2019-01-18T04:41:56.083Z,1.53
2019-01-18T04:47:02.749Z,1.57
2019-01-18T04:52:09.034Z,1.40
2019-01-18T04:57:15.474Z,1.15
2019-01-18T05:02:21.762Z,1.25
2019-01-18T05:07:28.211Z,1.27
2019-01-18T05:12:34.182Z,0.77
2019-01-18T05:17:40.162Z,1.02
2019-01-18T05:22:46.024Z,1.27
2019-01-18T05:27:52.048Z,1.30
2019-01-18T05:32:58.367Z,1.30
2019-01-18T05:38:04.585Z,1.37
2019-01-18T05:43:10.549Z,1.60
2019-01-18T05:48:16.409Z,1.60
2019-01-18T05:53:23.001Z,1.50
2019-01-18T05:58:29.031Z,1.40
2019-01-18T06:03:35.023Z,1.57
2019-01-18T06:08:41.309Z,1.33
2019-01-18T06:13:47.203Z,1.53
2019-01-18T06:18:53.269Z,1.80
2019-01-18T06:23:59.244Z,1.50
2019-01-18T06:29:06.470Z,1.92
2019-01-18T06:34:12.530Z,1.67
2019-01-18T06:39:18.396Z,1.30
2019-01-18T06:44:24.692Z,1.30
2019-01-18T06:49:30.784Z,1.60
2019-01-18T06:54:36.833Z,1.60
2019-01-18T06:59:43.436Z,3.03
2019-01-18T07:04:49.493Z,2.07
2019-01-18T07:09:55.790Z,2.43
2019-01-18T07:15:02.272Z,2.27
2019-01-18T07:20:11.196Z,2.43
2019-01-18T07:25:20.972Z,7.03
2019-01-18T07:30:35.532Z,6.10
2019-01-18T07:35:41.397Z,4.50
2019-01-18T07:40:47.409Z,3.40
2019-01-18T07:45:53.683Z,6.63
2019-01-18T07:50:59.845Z,7.37
2019-01-18T07:56:05.807Z,9.13
2019-01-18T08:01:11.855Z,3.43
2019-01-18T08:06:17.751Z,3.83
2019-01-18T08:11:23.833Z,7.90
2019-01-18T08:16:30.028Z,3.70
2019-01-18T08:21:36.098Z,3.62
2019-01-18T08:26:42.178Z,6.53
2019-01-18T08:31:48.156Z,9.13
2019-01-18T08:36:54.547Z,9.43
2019-01-18T08:42:00.682Z,8.00
2019-01-18T08:47:06.556Z,3.93
2019-01-18T08:52:12.648Z,4.70
2019-01-18T08:57:20.344Z,4.30
2019-01-18T09:02:26.430Z,5.55
2019-01-18T09:07:32.479Z,4.00
2019-01-18T09:12:38.473Z,2.43
2019-01-18T09:17:44.453Z,3.27
2019-01-18T09:22:50.213Z,3.65
2019-01-18T09:27:56.987Z,3.20
2019-01-18T09:33:04.494Z,3.10
2019-01-18T09:38:10.589Z,6.00
2019-01-18T09:43:17.187Z,3.90
2019-01-18T09:48:23.480Z,8.33
2019-01-18T09:53:29.607Z,13.93
2019-01-18T09:58:35.625Z,6.93
2019-01-18T10:03:41.836Z,13.70
2019-01-18T10:08:47.803Z,7.95
2019-01-18T10:13:54.166Z,4.60
2019-01-18T10:19:00.522Z,4.77
2019-01-18T10:24:06.500Z,5.00
2019-01-18T10:29:12.718Z,4.10
2019-01-18T10:34:19.090Z,3.92
2019-01-18T10:39:25.140Z,5.97
2019-01-18T10:44:31.548Z,5.00
2019-01-18T10:49:37.796Z,5.40
2019-01-18T10:54:43.778Z,6.57
2019-01-18T10:59:50.089Z,4.43
2019-01-18T11:04:56.131Z,4.00
2019-01-18T11:10:01.899Z,3.03
2019-01-18T11:15:10.955Z,2.93
2019-01-18T11:20:25.013Z,6.90
2019-01-18T11:25:32.054Z,4.80
2019-01-18T11:30:38.278Z,4.23
2019-01-18T11:35:44.127Z,4.37
2019-01-18T11:40:50.222Z,3.60
2019-01-18T11:45:55.993Z,3.70
2019-01-18T11:51:01.972Z,3.93
2019-01-18T11:56:08.140Z,11.23
2019-01-18T12:01:14.328Z,3.10
2019-01-18T12:06:20.439Z,3.90
2019-01-18T12:11:26.612Z,3.73
2019-01-18T12:16:32.764Z,3.10
2019-01-18T12:21:38.733Z,2.90
2019-01-18T12:26:44.603Z,2.72
2019-01-18T12:31:53.532Z,3.63
2019-01-18T12:36:59.853Z,4.53
2019-01-18T12:42:05.898Z,2.80
2019-01-18T12:47:12.391Z,2.62
2019-01-18T12:52:18.457Z,3.00
2019-01-18T12:57:24.548Z,6.03
2019-01-18T13:02:35.309Z,6.37
2019-01-18T13:07:38.572Z,4.93
2019-01-18T13:12:44.718Z,3.95
2019-01-18T13:17:50.909Z,2.87
2019-01-18T13:22:56.962Z,3.47
2019-01-18T13:28:03.160Z,3.00
2019-01-18T13:33:09.171Z,4.13
2019-01-18T13:38:15.226Z,4.35
2019-01-18T13:43:21.264Z,8.27
2019-01-18T13:48:27.350Z,7.45
2019-01-18T13:53:33.538Z,6.00
2019-01-18T13:58:40.026Z,3.20
2019-01-18T14:03:46.402Z,4.13
2019-01-18T14:08:52.460Z,2.60
2019-01-18T14:13:58.774Z,6.03
2019-01-18T14:19:06.147Z,6.25
2019-01-18T14:24:11.953Z,3.83
2019-01-18T14:29:18.323Z,5.43
2019-01-18T14:34:24.476Z,4.80
2019-01-18T14:39:30.255Z,5.03
2019-01-18T14:44:36.502Z,6.07
2019-01-18T14:49:42.797Z,10.20
2019-01-18T14:54:48.879Z,13.47
2019-01-18T14:59:55.056Z,13.40
2019-01-18T15:05:01.131Z,7.08
2019-01-18T15:10:25.576Z,9.93
2019-01-18T15:15:31.800Z,11.87
2019-01-18T15:20:38.135Z,9.67
2019-01-18T15:25:45.403Z,7.53
2019-01-18T15:30:51.278Z,7.27
2019-01-18T15:35:57.482Z,5.50
2019-01-18T15:41:03.783Z,5.93
2019-01-18T15:46:10.088Z,8.25
2019-01-18T15:51:15.970Z,5.53
2019-01-18T15:56:21.888Z,7.30
2019-01-18T16:01:28.259Z,5.60
2019-01-18T16:06:34.308Z,5.70
2019-01-18T16:11:40.280Z,5.73
2019-01-18T16:16:46.359Z,5.53
2019-01-18T16:21:52.470Z,8.67
2019-01-18T16:26:58.424Z,6.70
2019-01-18T16:32:04.517Z,6.10
2019-01-18T16:37:10.265Z,5.80
2019-01-18T16:42:16.327Z,7.78
2019-01-18T16:47:22.647Z,12.47
2019-01-18T16:52:28.785Z,8.67
2019-01-18T16:57:34.893Z,14.03
2019-01-18T17:02:42.085Z,20.52
2019-01-18T17:07:47.975Z,7.33
2019-01-18T17:12:53.938Z,18.43
2019-01-18T17:17:59.997Z,9.70
2019-01-18T17:23:06.288Z,9.17
2019-01-18T17:28:12.281Z,15.20
2019-01-18T17:33:18.121Z,19.53
2019-01-18T17:38:27.288Z,12.13
2019-01-18T17:44:01.837Z,26.63
2019-01-18T17:49:13.805Z,48.42
2019-01-18T17:54:31.775Z,32.45
2019-01-18T17:59:55.292Z,28.53
2019-01-18T18:05:21.007Z,22.50
2019-01-18T18:10:36.179Z,26.60
2019-01-18T18:15:51.583Z,16.77
2019-01-18T18:21:08.566Z,15.93
2019-01-18T18:26:17.758Z,14.60
2019-01-18T18:31:34.522Z,55.37
2019-01-18T18:36:55.956Z,23.10
2019-01-18T18:42:07.139Z,15.60
2019-01-18T18:47:25.198Z,13.93
2019-01-18T18:52:43.152Z,14.47
2019-01-18T18:58:07.546Z,16.33
2019-01-18T19:03:28.348Z,14.60
2019-01-18T19:08:46.394Z,13.93
2019-01-18T19:13:55.574Z,13.20
2019-01-18T19:19:29.231Z,13.68
2019-01-18T19:25:17.722Z,15.10
2019-01-18T19:30:44.023Z,13.20
2019-01-18T19:36:10.863Z,13.37
2019-01-18T19:41:35.248Z,13.22
2019-01-18T19:46:48.367Z,12.20
2019-01-18T19:52:20.311Z,22.30
2019-01-18T19:57:31.513Z,15.70
2019-01-18T20:02:52.911Z,13.20
2019-01-18T20:08:17.538Z,13.60
2019-01-18T20:13:40.519Z,13.07
2019-01-18T20:19:02.218Z,9.40
2019-01-18T20:24:19.684Z,8.13
2019-01-18T20:29:37.780Z,10.83
2019-01-18T20:35:16.306Z,7.13
2019-01-18T20:40:52.963Z,12.20
2019-01-18T20:46:04.912Z,16.03
2019-01-18T20:51:32.086Z,9.93
2019-01-18T20:56:51.968Z,9.77
2019-01-18T21:02:12.053Z,10.20
2019-01-18T21:07:32.872Z,14.33
2019-01-18T21:12:47.580Z,9.47
2019-01-18T21:18:11.755Z,11.17
2019-01-18T21:23:36.159Z,8.10
2019-01-18T21:28:47.929Z,26.60
2019-01-18T21:34:06.229Z,12.70
2019-01-18T21:39:20.703Z,9.68
2019-01-18T21:44:48.159Z,7.10
2019-01-18T21:50:08.009Z,20.00
2019-01-18T21:55:17.514Z,36.83
2019-01-18T22:00:59.571Z,14.63
2019-01-18T22:06:39.543Z,7.33
2019-01-18T22:11:58.216Z,10.13
2019-01-18T22:17:18.165Z,13.90
2019-01-18T22:22:45.797Z,9.33
2019-01-18T22:28:08.793Z,12.60
2019-01-18T22:33:30.374Z,7.67
2019-01-18T22:38:51.512Z,8.40
2019-01-18T22:44:03.676Z,7.93
2019-01-18T22:49:21.905Z,14.30
2019-01-18T22:54:39.611Z,8.43
2019-01-18T22:59:48.870Z,7.20
2019-01-18T23:05:06.956Z,6.63
2019-01-18T23:10:16.191Z,8.17
2019-01-18T23:15:48.787Z,8.00
2019-01-18T23:21:10.039Z,6.70
2019-01-18T23:26:41.935Z,8.03
2019-01-18T23:31:53.914Z,6.87
2019-01-18T23:37:05.049Z,7.70
2019-01-18T23:42:20.000Z,9.50
2019-01-18T23:47:38.230Z,9.27
2019-01-18T23:53:09.931Z,7.83
2019-01-18T23:58:36.743Z,10.97
